sensor_id;sensor_type;location;lat;lon;timestamp;P1;durP1;ratioP1;P2;durP2;ratioP2
27576;SDS011;15011;53.380;10.034;2022-11-15T00:04:26;74.30;;;36.97;;
27576;SDS011;15011;53.380;10.034;2022-11-15T00:09:27;76.53;;;37.33;;
27576;SDS011;15011;53.380;10.034;2022-11-15T00:14:27;92.00;;;39.95;;
27576;SDS011;15011;53.380;10.034;2022-11-15T00:19:28;83.18;;;38.83;;
27576;SDS011;15011;53.380;10.034;2022-11-15T00:24:28;84.45;;;38.47;;
27576;SDS011;15011;53.380;10.034;2022-11-15T00:29:28;95.50;;;41.42;;
27576;SDS011;15011;53.380;10.034;2022-11-15T00:34:29;83.65;;;37.58;;
27576;SDS011;15011;53.380;10.034;2022-11-15T00:39:29;77.70;;;36.47;;
27576;SDS011;15011;53.380;10.034;2022-11-15T00:44:30;75.13;;;35.60;;
27576;SDS011;15011;53.380;10.034;2022-11-15T00:49:30;95.35;;;39.92;;
27576;SDS011;15011;53.380;10.034;2022-11-15T00:54:30;101.22;;;40.35;;
27576;SDS011;15011;53.380;10.034;2022-11-15T00:59:31;61.08;;;33.10;;
27576;SDS011;15011;53.380;10.034;2022-11-15T01:04:32;73.90;;;35.22;;
27576;SDS011;15011;53.380;10.034;2022-11-15T01:09:32;72.80;;;33.40;;
27576;SDS011;15011;53.380;10.034;2022-11-15T01:14:33;155.75;;;45.22;;
27576;SDS011;15011;53.380;10.034;2022-11-15T01:19:33;66.10;;;32.75;;
27576;SDS011;15011;53.380;10.034;2022-11-15T01:24:33;65.00;;;32.95;;
27576;SDS011;15011;53.380;10.034;2022-11-15T01:29:34;64.60;;;31.55;;
27576;SDS011;15011;53.380;10.034;2022-11-15T01:34:34;71.78;;;34.95;;
27576;SDS011;15011;53.380;10.034;2022-11-15T01:39:35;66.93;;;34.65;;
27576;SDS011;15011;53.380;10.034;2022-11-15T01:49:45;71.13;;;34.78;;
27576;SDS011;15011;53.380;10.034;2022-11-15T01:54:53;61.58;;;30.73;;
27576;SDS011;15011;53.380;10.034;2022-11-15T02:00:14;58.90;;;30.25;;
27576;SDS011;15011;53.380;10.034;2022-11-15T02:05:15;56.42;;;29.80;;
27576;SDS011;15011;53.380;10.034;2022-11-15T02:10:25;62.72;;;31.35;;
27576;SDS011;15011;53.380;10.034;2022-11-15T02:15:26;53.47;;;29.55;;
27576;SDS011;15011;53.380;10.034;2022-11-15T02:26:16;55.65;;;28.92;;
27576;SDS011;15011;53.380;10.034;2022-11-15T02:31:28;58.60;;;29.77;;
27576;SDS011;15011;53.380;10.034;2022-11-15T02:36:58;61.17;;;30.50;;
27576;SDS011;15011;53.380;10.034;2022-11-15T02:42:14;56.97;;;29.20;;
27576;SDS011;15011;53.380;10.034;2022-11-15T02:47:43;61.53;;;31.13;;
27576;SDS011;15011;53.380;10.034;2022-11-15T02:52:47;55.00;;;27.63;;
27576;SDS011;15011;53.380;10.034;2022-11-15T02:57:52;56.50;;;29.13;;
27576;SDS011;15011;53.380;10.034;2022-11-15T03:19:30;57.45;;;27.00;;
27576;SDS011;15011;53.380;10.034;2022-11-15T03:24:46;44.97;;;24.67;;
27576;SDS011;15011;53.380;10.034;2022-11-15T03:29:49;54.42;;;26.00;;
27576;SDS011;15011;53.380;10.034;2022-11-15T03:35:02;44.92;;;24.00;;
27576;SDS011;15011;53.380;10.034;2022-11-15T03:40:06;45.63;;;23.58;;
27576;SDS011;15011;53.380;10.034;2022-11-15T03:50:23;43.63;;;21.90;;
27576;SDS011;15011;53.380;10.034;2022-11-15T03:55:24;51.35;;;25.45;;
27576;SDS011;15011;53.380;10.034;2022-11-15T04:00:25;44.55;;;23.48;;
27576;SDS011;15011;53.380;10.034;2022-11-15T04:05:26;40.38;;;22.40;;
27576;SDS011;15011;53.380;10.034;2022-11-15T04:10:26;46.72;;;23.60;;
27576;SDS011;15011;53.380;10.034;2022-11-15T04:15:27;47.17;;;23.95;;
27576;SDS011;15011;53.380;10.034;2022-11-15T04:20:29;46.17;;;23.70;;
27576;SDS011;15011;53.380;10.034;2022-11-15T04:25:49;39.25;;;20.90;;
27576;SDS011;15011;53.380;10.034;2022-11-15T04:30:52;42.40;;;22.20;;
27576;SDS011;15011;53.380;10.034;2022-11-15T04:35:52;45.72;;;21.98;;
27576;SDS011;15011;53.380;10.034;2022-11-15T04:41:11;45.83;;;23.85;;
27576;SDS011;15011;53.380;10.034;2022-11-15T04:46:12;41.53;;;22.35;;
27576;SDS011;15011;53.380;10.034;2022-11-15T04:51:12;48.13;;;23.80;;
27576;SDS011;15011;53.380;10.034;2022-11-15T04:56:13;43.70;;;22.40;;
27576;SDS011;15011;53.380;10.034;2022-11-15T05:01:14;51.00;;;25.40;;
27576;SDS011;15011;53.380;10.034;2022-11-15T05:06:14;50.15;;;23.73;;
27576;SDS011;15011;53.380;10.034;2022-11-15T05:11:15;45.90;;;24.60;;
27576;SDS011;15011;53.380;10.034;2022-11-15T05:16:15;51.80;;;24.45;;
27576;SDS011;15011;53.380;10.034;2022-11-15T05:21:16;55.17;;;25.75;;
27576;SDS011;15011;53.380;10.034;2022-11-15T05:26:16;90.88;;;41.30;;
27576;SDS011;15011;53.380;10.034;2022-11-15T05:31:18;61.42;;;28.90;;
27576;SDS011;15011;53.380;10.034;2022-11-15T05:36:38;59.65;;;29.27;;
27576;SDS011;15011;53.380;10.034;2022-11-15T05:46:44;56.30;;;26.38;;
27576;SDS011;15011;53.380;10.034;2022-11-15T05:51:44;59.35;;;27.08;;
27576;SDS011;15011;53.380;10.034;2022-11-15T05:56:46;50.07;;;24.30;;
27576;SDS011;15011;53.380;10.034;2022-11-15T06:01:47;83.63;;;30.15;;
27576;SDS011;15011;53.380;10.034;2022-11-15T06:06:47;52.13;;;25.77;;
27576;SDS011;15011;53.380;10.034;2022-11-15T06:11:48;45.38;;;23.63;;
27576;SDS011;15011;53.380;10.034;2022-11-15T06:16:48;60.28;;;28.95;;
27576;SDS011;15011;53.380;10.034;2022-11-15T06:21:49;58.58;;;27.88;;
27576;SDS011;15011;53.380;10.034;2022-11-15T06:26:49;44.95;;;24.52;;
27576;SDS011;15011;53.380;10.034;2022-11-15T06:31:49;49.80;;;25.25;;
27576;SDS011;15011;53.380;10.034;2022-11-15T06:36:50;55.33;;;26.98;;
27576;SDS011;15011;53.380;10.034;2022-11-15T06:41:50;48.70;;;25.92;;
27576;SDS011;15011;53.380;10.034;2022-11-15T06:46:51;51.90;;;25.65;;
27576;SDS011;15011;53.380;10.034;2022-11-15T06:51:51;45.00;;;24.33;;
27576;SDS011;15011;53.380;10.034;2022-11-15T06:56:52;50.95;;;25.55;;
27576;SDS011;15011;53.380;10.034;2022-11-15T07:01:52;43.53;;;23.77;;
27576;SDS011;15011;53.380;10.034;2022-11-15T07:06:53;47.95;;;24.27;;
27576;SDS011;15011;53.380;10.034;2022-11-15T07:11:53;39.65;;;22.35;;
27576;SDS011;15011;53.380;10.034;2022-11-15T07:16:53;47.67;;;23.38;;
27576;SDS011;15011;53.380;10.034;2022-11-15T07:21:54;40.30;;;21.48;;
27576;SDS011;15011;53.380;10.034;2022-11-15T07:26:54;42.53;;;23.38;;
27576;SDS011;15011;53.380;10.034;2022-11-15T07:31:55;47.53;;;23.65;;
27576;SDS011;15011;53.380;10.034;2022-11-15T07:36:55;41.90;;;22.27;;
27576;SDS011;15011;53.380;10.034;2022-11-15T07:41:56;47.35;;;23.20;;
27576;SDS011;15011;53.380;10.034;2022-11-15T07:47:16;42.60;;;23.58;;
27576;SDS011;15011;53.380;10.034;2022-11-15T07:52:17;42.97;;;22.20;;
27576;SDS011;15011;53.380;10.034;2022-11-15T07:57:17;41.35;;;23.35;;
27576;SDS011;15011;53.380;10.034;2022-11-15T08:02:17;43.15;;;26.48;;
27576;SDS011;15011;53.380;10.034;2022-11-15T08:07:18;42.47;;;22.67;;
27576;SDS011;15011;53.380;10.034;2022-11-15T08:12:18;41.63;;;23.83;;
27576;SDS011;15011;53.380;10.034;2022-11-15T08:17:20;41.28;;;22.02;;
27576;SDS011;15011;53.380;10.034;2022-11-15T08:22:20;40.53;;;24.20;;
27576;SDS011;15011;53.380;10.034;2022-11-15T08:27:21;38.40;;;23.40;;
27576;SDS011;15011;53.380;10.034;2022-11-15T08:32:21;41.20;;;25.05;;
27576;SDS011;15011;53.380;10.034;2022-11-15T08:37:21;33.88;;;21.92;;
27576;SDS011;15011;53.380;10.034;2022-11-15T08:42:22;33.47;;;20.90;;
27576;SDS011;15011;53.380;10.034;2022-11-15T08:47:22;34.45;;;20.98;;
27576;SDS011;15011;53.380;10.034;2022-11-15T08:52:24;39.22;;;21.98;;
27576;SDS011;15011;53.380;10.034;2022-11-15T08:57:24;36.33;;;21.42;;
27576;SDS011;15011;53.380;10.034;2022-11-15T09:02:24;32.65;;;20.38;;
27576;SDS011;15011;53.380;10.034;2022-11-15T09:07:25;36.17;;;20.52;;
27576;SDS011;15011;53.380;10.034;2022-11-15T09:12:25;31.65;;;18.88;;
27576;SDS011;15011;53.380;10.034;2022-11-15T09:17:26;33.72;;;20.15;;
27576;SDS011;15011;53.380;10.034;2022-11-15T09:22:26;31.77;;;19.58;;
27576;SDS011;15011;53.380;10.034;2022-11-15T09:27:27;25.83;;;19.02;;
27576;SDS011;15011;53.380;10.034;2022-11-15T09:32:29;27.40;;;18.30;;
27576;SDS011;15011;53.380;10.034;2022-11-15T09:37:31;29.73;;;18.10;;
27576;SDS011;15011;53.380;10.034;2022-11-15T09:42:46;30.70;;;20.53;;
27576;SDS011;15011;53.380;10.034;2022-11-15T09:52:55;25.98;;;18.40;;
27576;SDS011;15011;53.380;10.034;2022-11-15T09:57:59;24.63;;;18.15;;
27576;SDS011;15011;53.380;10.034;2022-11-15T10:03:11;25.38;;;17.73;;
27576;SDS011;15011;53.380;10.034;2022-11-15T10:13:37;23.80;;;16.73;;
27576;SDS011;15011;53.380;10.034;2022-11-15T10:23:53;20.95;;;14.07;;
27576;SDS011;15011;53.380;10.034;2022-11-15T10:28:54;19.67;;;13.18;;
27576;SDS011;15011;53.380;10.034;2022-11-15T10:34:37;19.38;;;13.57;;
27576;SDS011;15011;53.380;10.034;2022-11-15T10:39:19;14.93;;;11.27;;
27576;SDS011;15011;53.380;10.034;2022-11-15T10:44:27;15.87;;;11.63;;
27576;SDS011;15011;53.380;10.034;2022-11-15T10:49:30;18.33;;;11.27;;
27576;SDS011;15011;53.380;10.034;2022-11-15T10:54:42;17.80;;;11.68;;
27576;SDS011;15011;53.380;10.034;2022-11-15T10:59:49;16.00;;;10.60;;
27576;SDS011;15011;53.380;10.034;2022-11-15T11:04:51;18.15;;;9.80;;
27576;SDS011;15011;53.380;10.034;2022-11-15T11:10:03;15.65;;;10.48;;
27576;SDS011;15011;53.380;10.034;2022-11-15T11:15:09;14.38;;;9.45;;
27576;SDS011;15011;53.380;10.034;2022-11-15T11:20:18;13.55;;;9.65;;
27576;SDS011;15011;53.380;10.034;2022-11-15T11:25:44;15.18;;;10.95;;
27576;SDS011;15011;53.380;10.034;2022-11-15T11:30:51;16.48;;;8.88;;
27576;SDS011;15011;53.380;10.034;2022-11-15T11:47:07;15.65;;;10.25;;
27576;SDS011;15011;53.380;10.034;2022-11-15T11:52:13;19.20;;;12.40;;
27576;SDS011;15011;53.380;10.034;2022-11-15T11:57:40;18.90;;;13.73;;
27576;SDS011;15011;53.380;10.034;2022-11-15T12:13:26;15.20;;;10.43;;
27576;SDS011;15011;53.380;10.034;2022-11-15T12:18:27;14.38;;;9.40;;
27576;SDS011;15011;53.380;10.034;2022-11-15T12:33:46;10.63;;;8.55;;
27576;SDS011;15011;53.380;10.034;2022-11-15T12:43:50;13.65;;;8.00;;
27576;SDS011;15011;53.380;10.034;2022-11-15T12:53:55;21.55;;;15.50;;
27576;SDS011;15011;53.380;10.034;2022-11-15T12:58:56;26.67;;;18.07;;
27576;SDS011;15011;53.380;10.034;2022-11-15T13:19:57;13.77;;;8.88;;
27576;SDS011;15011;53.380;10.034;2022-11-15T13:25:03;12.82;;;8.27;;
27576;SDS011;15011;53.380;10.034;2022-11-15T13:30:04;13.45;;;8.80;;
27576;SDS011;15011;53.380;10.034;2022-11-15T13:35:06;13.52;;;8.93;;
27576;SDS011;15011;53.380;10.034;2022-11-15T13:40:15;12.60;;;8.50;;
27576;SDS011;15011;53.380;10.034;2022-11-15T13:45:18;14.15;;;9.50;;
27576;SDS011;15011;53.380;10.034;2022-11-15T13:50:20;14.50;;;7.87;;
27576;SDS011;15011;53.380;10.034;2022-11-15T14:00:39;9.32;;;6.80;;
27576;SDS011;15011;53.380;10.034;2022-11-15T14:05:42;9.75;;;6.35;;
27576;SDS011;15011;53.380;10.034;2022-11-15T14:10:42;20.70;;;12.80;;
27576;SDS011;15011;53.380;10.034;2022-11-15T14:15:43;9.82;;;6.60;;
27576;SDS011;15011;53.380;10.034;2022-11-15T14:20:43;11.23;;;6.32;;
27576;SDS011;15011;53.380;10.034;2022-11-15T14:25:52;11.90;;;6.15;;
27576;SDS011;15011;53.380;10.034;2022-11-15T14:30:59;9.55;;;5.65;;
27576;SDS011;15011;53.380;10.034;2022-11-15T14:36:11;7.70;;;5.72;;
27576;SDS011;15011;53.380;10.034;2022-11-15T14:41:19;11.23;;;6.37;;
27576;SDS011;15011;53.380;10.034;2022-11-15T14:46:20;11.00;;;6.65;;
27576;SDS011;15011;53.380;10.034;2022-11-15T14:51:21;8.73;;;7.00;;
27576;SDS011;15011;53.380;10.034;2022-11-15T14:56:21;10.70;;;6.82;;
27576;SDS011;15011;53.380;10.034;2022-11-15T15:01:25;15.32;;;7.05;;
27576;SDS011;15011;53.380;10.034;2022-11-15T15:06:26;10.70;;;7.38;;
27576;SDS011;15011;53.380;10.034;2022-11-15T15:11:27;12.82;;;8.38;;
27576;SDS011;15011;53.380;10.034;2022-11-15T15:16:29;16.00;;;8.95;;
27576;SDS011;15011;53.380;10.034;2022-11-15T15:21:29;13.40;;;8.20;;
27576;SDS011;15011;53.380;10.034;2022-11-15T15:26:31;15.50;;;9.55;;
27576;SDS011;15011;53.380;10.034;2022-11-15T15:31:36;16.88;;;9.80;;
27576;SDS011;15011;53.380;10.034;2022-11-15T15:36:36;17.05;;;12.38;;
27576;SDS011;15011;53.380;10.034;2022-11-15T15:41:37;15.05;;;10.65;;
27576;SDS011;15011;53.380;10.034;2022-11-15T15:46:37;17.02;;;11.23;;
27576;SDS011;15011;53.380;10.034;2022-11-15T15:51:38;16.90;;;10.43;;
27576;SDS011;15011;53.380;10.034;2022-11-15T15:56:38;14.73;;;10.57;;
27576;SDS011;15011;53.380;10.034;2022-11-15T16:01:39;17.83;;;10.23;;
27576;SDS011;15011;53.380;10.034;2022-11-15T16:06:39;14.93;;;10.57;;
27576;SDS011;15011;53.380;10.034;2022-11-15T16:11:45;16.63;;;10.60;;
27576;SDS011;15011;53.380;10.034;2022-11-15T16:16:45;16.30;;;10.50;;
27576;SDS011;15011;53.380;10.034;2022-11-15T16:21:46;15.83;;;9.50;;
27576;SDS011;15011;53.380;10.034;2022-11-15T16:26:47;15.88;;;10.30;;
27576;SDS011;15011;53.380;10.034;2022-11-15T16:31:48;14.73;;;9.60;;
27576;SDS011;15011;53.380;10.034;2022-11-15T16:36:48;15.15;;;10.30;;
27576;SDS011;15011;53.380;10.034;2022-11-15T16:41:49;17.65;;;9.55;;
27576;SDS011;15011;53.380;10.034;2022-11-15T16:46:49;14.60;;;9.35;;
27576;SDS011;15011;53.380;10.034;2022-11-15T16:51:53;13.52;;;8.77;;
27576;SDS011;15011;53.380;10.034;2022-11-15T16:56:54;12.73;;;9.75;;
27576;SDS011;15011;53.380;10.034;2022-11-15T17:01:54;13.43;;;8.70;;
27576;SDS011;15011;53.380;10.034;2022-11-15T17:06:55;18.45;;;9.73;;
27576;SDS011;15011;53.380;10.034;2022-11-15T17:11:55;15.55;;;10.07;;
27576;SDS011;15011;53.380;10.034;2022-11-15T17:16:56;17.83;;;10.10;;
27576;SDS011;15011;53.380;10.034;2022-11-15T17:21:57;18.52;;;10.95;;
27576;SDS011;15011;53.380;10.034;2022-11-15T17:26:57;19.08;;;9.80;;
27576;SDS011;15011;53.380;10.034;2022-11-15T17:31:58;15.82;;;10.90;;
27576;SDS011;15011;53.380;10.034;2022-11-15T17:36:58;19.13;;;11.70;;
27576;SDS011;15011;53.380;10.034;2022-11-15T17:41:58;17.70;;;10.13;;
27576;SDS011;15011;53.380;10.034;2022-11-15T17:46:59;16.45;;;10.98;;
27576;SDS011;15011;53.380;10.034;2022-11-15T17:51:59;18.73;;;12.45;;
27576;SDS011;15011;53.380;10.034;2022-11-15T17:57:00;16.42;;;11.15;;
27576;SDS011;15011;53.380;10.034;2022-11-15T18:02:00;16.83;;;11.80;;
27576;SDS011;15011;53.380;10.034;2022-11-15T18:07:01;18.17;;;11.52;;
27576;SDS011;15011;53.380;10.034;2022-11-15T18:12:01;19.73;;;11.68;;
27576;SDS011;15011;53.380;10.034;2022-11-15T18:17:02;17.23;;;10.77;;
27576;SDS011;15011;53.380;10.034;2022-11-15T18:22:02;18.88;;;11.10;;
27576;SDS011;15011;53.380;10.034;2022-11-15T18:27:04;26.90;;;17.30;;
27576;SDS011;15011;53.380;10.034;2022-11-15T18:32:05;24.02;;;16.08;;
27576;SDS011;15011;53.380;10.034;2022-11-15T18:37:11;21.40;;;11.77;;
27576;SDS011;15011;53.380;10.034;2022-11-15T18:42:11;24.05;;;13.40;;
27576;SDS011;15011;53.380;10.034;2022-11-15T18:47:12;15.35;;;10.05;;
27576;SDS011;15011;53.380;10.034;2022-11-15T18:52:12;17.02;;;11.05;;
27576;SDS011;15011;53.380;10.034;2022-11-15T18:57:13;17.38;;;10.98;;
27576;SDS011;15011;53.380;10.034;2022-11-15T19:02:13;17.10;;;11.23;;
27576;SDS011;15011;53.380;10.034;2022-11-15T19:07:14;20.85;;;11.90;;
27576;SDS011;15011;53.380;10.034;2022-11-15T19:12:14;19.20;;;12.15;;
27576;SDS011;15011;53.380;10.034;2022-11-15T19:17:14;20.85;;;12.45;;
27576;SDS011;15011;53.380;10.034;2022-11-15T19:22:15;22.08;;;12.80;;
27576;SDS011;15011;53.380;10.034;2022-11-15T19:27:15;18.83;;;12.48;;
27576;SDS011;15011;53.380;10.034;2022-11-15T19:32:16;16.83;;;11.40;;
27576;SDS011;15011;53.380;10.034;2022-11-15T19:37:16;20.73;;;12.35;;
27576;SDS011;15011;53.380;10.034;2022-11-15T19:42:17;20.85;;;12.60;;
27576;SDS011;15011;53.380;10.034;2022-11-15T19:47:17;22.48;;;12.52;;
27576;SDS011;15011;53.380;10.034;2022-11-15T19:52:17;22.45;;;12.77;;
27576;SDS011;15011;53.380;10.034;2022-11-15T19:57:19;22.43;;;13.70;;
27576;SDS011;15011;53.380;10.034;2022-11-15T20:02:20;24.48;;;14.27;;
27576;SDS011;15011;53.380;10.034;2022-11-15T20:07:20;22.58;;;14.43;;
27576;SDS011;15011;53.380;10.034;2022-11-15T20:12:21;23.63;;;13.23;;
27576;SDS011;15011;53.380;10.034;2022-11-15T20:17:21;20.45;;;13.80;;
27576;SDS011;15011;53.380;10.034;2022-11-15T20:22:23;24.58;;;13.68;;
27576;SDS011;15011;53.380;10.034;2022-11-15T20:27:24;21.48;;;14.18;;
27576;SDS011;15011;53.380;10.034;2022-11-15T20:32:25;23.45;;;13.80;;
27576;SDS011;15011;53.380;10.034;2022-11-15T20:37:26;21.60;;;14.40;;
27576;SDS011;15011;53.380;10.034;2022-11-15T20:42:27;22.58;;;14.32;;
27576;SDS011;15011;53.380;10.034;2022-11-15T20:47:29;23.77;;;15.00;;
27576;SDS011;15011;53.380;10.034;2022-11-15T20:52:30;26.85;;;15.57;;
27576;SDS011;15011;53.380;10.034;2022-11-15T20:57:31;27.60;;;15.93;;
27576;SDS011;15011;53.380;10.034;2022-11-15T21:02:31;23.98;;;14.82;;
27576;SDS011;15011;53.380;10.034;2022-11-15T21:07:32;24.23;;;16.02;;
27576;SDS011;15011;53.380;10.034;2022-11-15T21:12:32;26.58;;;15.82;;
27576;SDS011;15011;53.380;10.034;2022-11-15T21:17:33;26.80;;;16.48;;
27576;SDS011;15011;53.380;10.034;2022-11-15T21:22:33;26.60;;;16.83;;
27576;SDS011;15011;53.380;10.034;2022-11-15T21:27:34;31.95;;;16.98;;
27576;SDS011;15011;53.380;10.034;2022-11-15T21:32:34;27.95;;;15.45;;
27576;SDS011;15011;53.380;10.034;2022-11-15T21:37:36;24.27;;;15.95;;
27576;SDS011;15011;53.380;10.034;2022-11-15T21:42:36;23.40;;;15.38;;
27576;SDS011;15011;53.380;10.034;2022-11-15T21:47:37;34.58;;;19.67;;
27576;SDS011;15011;53.380;10.034;2022-11-15T21:52:37;27.58;;;18.55;;
27576;SDS011;15011;53.380;10.034;2022-11-15T21:57:38;28.50;;;16.35;;
27576;SDS011;15011;53.380;10.034;2022-11-15T22:02:38;24.80;;;16.90;;
27576;SDS011;15011;53.380;10.034;2022-11-15T22:07:39;31.83;;;17.75;;
27576;SDS011;15011;53.380;10.034;2022-11-15T22:12:39;29.25;;;17.55;;
27576;SDS011;15011;53.380;10.034;2022-11-15T22:17:40;28.25;;;16.45;;
27576;SDS011;15011;53.380;10.034;2022-11-15T22:22:58;31.15;;;18.60;;
27576;SDS011;15011;53.380;10.034;2022-11-15T22:27:59;34.63;;;19.60;;
27576;SDS011;15011;53.380;10.034;2022-11-15T22:33:00;30.05;;;19.33;;
27576;SDS011;15011;53.380;10.034;2022-11-15T22:38:00;33.55;;;20.30;;
27576;SDS011;15011;53.380;10.034;2022-11-15T22:43:01;34.65;;;20.88;;
27576;SDS011;15011;53.380;10.034;2022-11-15T22:48:01;32.50;;;20.40;;
27576;SDS011;15011;53.380;10.034;2022-11-15T22:53:02;31.40;;;20.35;;
27576;SDS011;15011;53.380;10.034;2022-11-15T22:58:02;30.23;;;19.88;;
27576;SDS011;15011;53.380;10.034;2022-11-15T23:03:03;34.60;;;20.95;;
27576;SDS011;15011;53.380;10.034;2022-11-15T23:08:04;35.10;;;21.75;;
27576;SDS011;15011;53.380;10.034;2022-11-15T23:13:04;35.67;;;23.15;;
27576;SDS011;15011;53.380;10.034;2022-11-15T23:18:15;34.92;;;21.92;;
27576;SDS011;15011;53.380;10.034;2022-11-15T23:23:16;36.88;;;23.58;;
27576;SDS011;15011;53.380;10.034;2022-11-15T23:28:16;36.78;;;22.15;;
27576;SDS011;15011;53.380;10.034;2022-11-15T23:33:17;35.00;;;23.70;;
27576;SDS011;15011;53.380;10.034;2022-11-15T23:38:36;37.78;;;23.50;;
27576;SDS011;15011;53.380;10.034;2022-11-15T23:43:37;39.08;;;24.42;;
27576;SDS011;15011;53.380;10.034;2022-11-15T23:48:37;37.60;;;23.55;;
27576;SDS011;15011;53.380;10.034;2022-11-15T23:53:38;38.63;;;23.40;;
27576;SDS011;15011;53.380;10.034;2022-11-15T23:58:38;38.20;;;23.23;;
